createdAt,value
2022-10-05T00:00:48.393Z,5.55
2022-10-05T00:03:15.215Z,5.63
2022-10-05T00:05:44.672Z,5.47
2022-10-05T00:08:16.117Z,5.85
2022-10-05T00:10:43.996Z,5.22
2022-10-05T00:13:25.524Z,5.75
2022-10-05T00:16:00.018Z,5.18
2022-10-05T00:18:27.181Z,5.40
2022-10-05T00:20:54.944Z,4.60
2022-10-05T00:23:26.087Z,4.82
2022-10-05T00:25:53.044Z,5.22
2022-10-05T00:28:27.773Z,4.30
2022-10-05T00:30:59.229Z,4.93
2022-10-05T00:33:27.677Z,4.90
2022-10-05T00:35:55.653Z,4.10
2022-10-05T00:38:22.550Z,4.45
2022-10-05T00:41:11.533Z,4.10
2022-10-05T00:44:06.177Z,4.47
2022-10-05T00:46:47.027Z,3.88
2022-10-05T00:49:38.109Z,4.30
2022-10-05T00:52:21.976Z,4.30
2022-10-05T00:55:17.768Z,4.00
2022-10-05T00:58:11.008Z,4.70
2022-10-05T01:01:00.404Z,4.97
2022-10-05T01:03:55.643Z,5.30
2022-10-05T01:06:50.265Z,5.10
2022-10-05T01:09:24.928Z,5.05
2022-10-05T01:12:01.609Z,5.40
2022-10-05T01:14:51.955Z,6.07
2022-10-05T01:17:40.027Z,6.07
2022-10-05T01:20:31.837Z,5.65
2022-10-05T01:23:46.155Z,6.45
2022-10-05T01:26:35.004Z,6.38
2022-10-05T01:29:01.740Z,6.45
2022-10-05T01:31:40.621Z,6.43
2022-10-05T01:34:20.059Z,6.00
2022-10-05T01:37:14.890Z,6.72
2022-10-05T01:40:04.330Z,6.55
2022-10-05T01:43:03.209Z,6.93
2022-10-05T01:45:58.436Z,6.97
2022-10-05T01:48:46.453Z,6.75
2022-10-05T01:51:42.912Z,6.93
2022-10-05T01:54:18.481Z,7.63
2022-10-05T01:57:06.281Z,7.43
2022-10-05T01:59:56.691Z,7.10
2022-10-05T02:02:25.203Z,7.25
2022-10-05T02:05:29.145Z,6.40
2022-10-05T02:08:03.501Z,7.43
2022-10-05T02:10:38.617Z,7.32
2022-10-05T02:13:30.098Z,6.93
2022-10-05T02:16:10.552Z,6.95
2022-10-05T02:18:50.563Z,6.63
2022-10-05T02:21:19.404Z,7.13
2022-10-05T02:23:48.089Z,6.40
2022-10-05T02:26:17.605Z,7.18
2022-10-05T02:29:07.451Z,6.65
2022-10-05T02:31:46.179Z,6.75
2022-10-05T02:34:31.984Z,6.78
2022-10-05T02:37:27.374Z,6.38
2022-10-05T02:40:04.733Z,6.57
2022-10-05T02:42:52.603Z,6.13
2022-10-05T02:45:57.927Z,6.03
2022-10-05T02:49:00.990Z,6.47
2022-10-05T02:52:02.504Z,6.60
2022-10-05T02:54:42.684Z,6.22
2022-10-05T02:57:23.188Z,6.63
2022-10-05T02:59:59.335Z,6.43
2022-10-05T03:03:06.226Z,6.18
2022-10-05T03:05:46.554Z,6.30
2022-10-05T03:08:19.520Z,6.20
2022-10-05T03:11:04.573Z,5.88
2022-10-05T03:13:53.285Z,6.25
2022-10-05T03:16:38.414Z,5.55
2022-10-05T03:19:43.640Z,5.95
2022-10-05T03:22:42.614Z,7.07
2022-10-05T03:25:12.467Z,5.93
2022-10-05T03:27:51.804Z,6.65
2022-10-05T03:30:25.668Z,5.75
2022-10-05T03:32:55.188Z,6.18
2022-10-05T03:35:48.767Z,6.32
2022-10-05T03:40:57.174Z,7.05
2022-10-05T03:43:58.351Z,7.00
2022-10-05T03:46:53.243Z,6.93
2022-10-05T03:49:31.411Z,6.50
2022-10-05T03:52:28.288Z,6.57
2022-10-05T03:55:05.568Z,7.20
2022-10-05T03:57:36.152Z,7.47
2022-10-05T04:00:05.897Z,7.15
2022-10-05T04:02:41.900Z,7.63
2022-10-05T04:05:19.603Z,7.10
2022-10-05T04:08:00.290Z,6.63
2022-10-05T04:10:50.945Z,6.93
2022-10-05T04:13:37.451Z,7.55
2022-10-05T04:16:20.885Z,7.22
2022-10-05T04:19:02.007Z,7.70
2022-10-05T04:21:49.435Z,7.75
2022-10-05T04:24:42.321Z,8.60
2022-10-05T04:27:41.769Z,7.80
2022-10-05T04:30:16.273Z,8.35
2022-10-05T04:32:45.732Z,8.35
2022-10-05T04:35:50.289Z,8.32
2022-10-05T04:38:38.799Z,7.63
2022-10-05T04:41:39.432Z,8.88
2022-10-05T04:44:15.259Z,8.65
2022-10-05T04:46:54.669Z,9.55
2022-10-05T04:49:50.202Z,8.88
2022-10-05T04:52:40.397Z,9.27
2022-10-05T04:55:36.230Z,9.43
2022-10-05T04:58:16.346Z,10.15
2022-10-05T05:01:38.627Z,8.93
2022-10-05T05:04:39.002Z,10.07
2022-10-05T05:07:33.602Z,10.02
2022-10-05T05:10:14.040Z,9.65
2022-10-05T05:13:02.606Z,9.60
2022-10-05T05:15:36.227Z,10.13
2022-10-05T05:18:05.706Z,10.02
2022-10-05T05:21:19.493Z,9.65
2022-10-05T05:24:21.156Z,10.43
2022-10-05T05:27:02.845Z,10.95
2022-10-05T05:29:51.988Z,10.57
2022-10-05T05:32:33.649Z,10.25
2022-10-05T05:35:18.898Z,11.00
2022-10-05T05:38:14.762Z,10.18
2022-10-05T05:40:56.716Z,10.25
2022-10-05T05:43:53.063Z,10.43
2022-10-05T05:46:51.539Z,11.38
2022-10-05T05:49:46.575Z,9.85
2022-10-05T05:52:20.169Z,10.23
2022-10-05T05:55:13.474Z,10.80
2022-10-05T05:58:00.168Z,10.48
2022-10-05T06:00:32.809Z,10.02
2022-10-05T06:03:12.895Z,11.50
2022-10-05T06:05:45.583Z,10.57
2022-10-05T06:08:21.412Z,10.32
2022-10-05T06:11:01.220Z,10.13
2022-10-05T06:13:34.101Z,10.32
2022-10-05T06:16:06.846Z,10.05
2022-10-05T06:18:34.542Z,10.98
2022-10-05T06:21:15.490Z,9.80
2022-10-05T06:23:52.386Z,10.18
2022-10-05T06:26:42.064Z,9.85
2022-10-05T06:29:14.176Z,10.43
2022-10-05T06:32:01.133Z,10.23
2022-10-05T06:34:46.194Z,10.40
2022-10-05T06:37:40.988Z,9.55
2022-10-05T06:40:36.380Z,9.73
2022-10-05T06:43:29.998Z,10.75
2022-10-05T06:49:06.332Z,9.55
2022-10-05T06:51:57.205Z,8.68
2022-10-05T06:54:51.412Z,10.20
2022-10-05T06:57:30.800Z,9.40
2022-10-05T07:00:00.679Z,9.32
2022-10-05T07:02:45.207Z,8.32
2022-10-05T07:05:48.070Z,8.88
2022-10-05T07:08:46.168Z,9.27
2022-10-05T07:11:25.079Z,8.02
2022-10-05T07:14:09.463Z,7.22
2022-10-05T07:17:34.562Z,8.15
2022-10-05T07:20:16.093Z,8.30
2022-10-05T07:22:51.645Z,8.18
2022-10-05T07:25:29.313Z,8.50
2022-10-05T07:28:09.361Z,8.65
2022-10-05T07:31:21.219Z,8.50
2022-10-05T07:33:59.559Z,7.57
2022-10-05T07:37:05.831Z,7.95
2022-10-05T07:39:59.517Z,7.97
2022-10-05T07:42:52.333Z,8.43
2022-10-05T07:45:26.640Z,7.88
2022-10-05T07:47:56.912Z,7.95
2022-10-05T07:50:49.171Z,7.80
2022-10-05T07:53:22.661Z,8.00
2022-10-05T07:56:04.595Z,7.80
2022-10-05T07:58:35.682Z,8.07
2022-10-05T08:01:06.455Z,7.18
2022-10-05T08:03:43.700Z,7.88
2022-10-05T08:06:19.278Z,9.18
2022-10-05T08:08:57.479Z,7.88
2022-10-05T08:11:34.788Z,8.15
2022-10-05T08:14:24.756Z,7.13
2022-10-05T08:16:58.186Z,7.57
2022-10-05T08:19:50.892Z,7.28
2022-10-05T08:22:29.201Z,7.37
2022-10-05T08:25:39.419Z,6.60
2022-10-05T08:28:30.327Z,7.38
2022-10-05T08:31:07.509Z,7.00
2022-10-05T08:34:00.977Z,6.97
2022-10-05T08:36:54.059Z,7.05
2022-10-05T08:39:24.327Z,6.75
2022-10-05T08:42:19.295Z,6.13
2022-10-05T08:44:52.420Z,5.43
2022-10-05T08:47:39.725Z,6.00
2022-10-05T08:50:18.644Z,6.05
2022-10-05T08:52:56.269Z,5.60
2022-10-05T08:56:03.078Z,5.88
2022-10-05T08:59:07.644Z,5.85
2022-10-05T09:01:43.377Z,6.25
2022-10-05T09:04:25.824Z,5.22
2022-10-05T09:07:07.729Z,4.77
2022-10-05T09:09:53.183Z,5.05
2022-10-05T09:12:50.346Z,4.35
2022-10-05T09:15:26.302Z,4.38
2022-10-05T09:18:17.703Z,5.25
2022-10-05T09:20:54.079Z,4.78
2022-10-05T09:23:29.912Z,4.30
2022-10-05T09:26:42.066Z,3.67
2022-10-05T09:29:33.615Z,3.58
2022-10-05T09:32:34.455Z,3.85
2022-10-05T09:35:39.007Z,4.05
2022-10-05T09:38:21.104Z,3.60
2022-10-05T09:41:18.842Z,3.95
2022-10-05T09:44:00.745Z,3.35
2022-10-05T09:46:40.890Z,3.47
2022-10-05T09:49:29.520Z,3.88
2022-10-05T09:52:02.250Z,3.45
2022-10-05T09:54:57.091Z,3.53
2022-10-05T09:57:42.297Z,3.95
2022-10-05T10:00:20.575Z,3.50
2022-10-05T10:02:50.451Z,3.65
2022-10-05T10:05:35.259Z,3.53
2022-10-05T10:08:36.514Z,4.07
2022-10-05T10:11:38.403Z,3.63
2022-10-05T10:14:50.156Z,4.15
2022-10-05T10:17:16.908Z,3.80
2022-10-05T10:20:22.980Z,4.32
2022-10-05T10:23:29.233Z,4.07
2022-10-05T10:26:24.874Z,3.65
2022-10-05T10:29:06.745Z,3.03
2022-10-05T10:32:10.329Z,3.30
2022-10-05T10:34:55.348Z,3.25
2022-10-05T10:37:39.135Z,3.15
2022-10-05T10:40:26.072Z,2.88
2022-10-05T10:42:56.280Z,3.03
2022-10-05T10:45:35.078Z,3.20
2022-10-05T10:48:05.292Z,3.33
2022-10-05T10:50:40.958Z,3.10
2022-10-05T10:53:29.977Z,2.78
2022-10-05T10:56:23.180Z,2.63
2022-10-05T10:59:10.436Z,2.42
2022-10-05T11:02:01.435Z,2.33
2022-10-05T11:04:46.472Z,2.40
2022-10-05T11:07:35.082Z,2.63
2022-10-05T11:10:58.916Z,2.63
2022-10-05T11:13:36.729Z,2.85
2022-10-05T11:16:45.599Z,2.85
2022-10-05T11:20:03.118Z,3.15
2022-10-05T11:22:58.600Z,2.50
2022-10-05T11:25:52.585Z,2.63
2022-10-05T11:28:35.642Z,2.90
2022-10-05T11:31:44.361Z,2.72
2022-10-05T11:34:48.833Z,2.53
2022-10-05T11:38:04.999Z,2.90
2022-10-05T11:40:56.758Z,2.63
2022-10-05T11:44:07.308Z,2.78
2022-10-05T11:46:51.466Z,2.50
2022-10-05T11:49:35.805Z,3.00
2022-10-05T11:52:38.579Z,2.75
2022-10-05T11:55:26.409Z,3.00
2022-10-05T11:58:15.317Z,2.60
2022-10-05T12:01:12.763Z,2.78
2022-10-05T12:03:57.888Z,2.35
2022-10-05T12:06:56.603Z,2.75
2022-10-05T12:09:34.840Z,2.85
2022-10-05T12:12:22.232Z,2.50
2022-10-05T12:15:31.936Z,3.15
2022-10-05T12:18:09.044Z,2.50
2022-10-05T12:20:35.817Z,2.67
2022-10-05T12:23:27.608Z,2.92
2022-10-05T12:26:15.973Z,3.10
2022-10-05T12:28:49.789Z,3.67
2022-10-05T12:31:19.603Z,2.75
2022-10-05T12:33:58.502Z,1.75
2022-10-05T12:36:59.647Z,2.30
2022-10-05T12:39:41.426Z,2.65
2022-10-05T12:45:32.955Z,2.33
2022-10-05T12:48:18.829Z,2.78
2022-10-05T12:50:51.283Z,2.80
2022-10-05T12:53:28.774Z,2.25
2022-10-05T12:56:04.292Z,2.65
2022-10-05T12:59:00.021Z,2.35
2022-10-05T13:01:51.004Z,2.70
2022-10-05T13:04:48.525Z,2.35
2022-10-05T13:07:52.526Z,2.53
2022-10-05T13:10:58.875Z,2.38
2022-10-05T13:13:43.501Z,2.55
2022-10-05T13:16:20.306Z,2.50
2022-10-05T13:18:50.673Z,2.47
2022-10-05T13:21:28.511Z,2.08
2022-10-05T13:24:17.368Z,1.90
2022-10-05T13:26:50.191Z,2.58
2022-10-05T13:29:33.176Z,2.40
2022-10-05T13:32:06.008Z,2.33
2022-10-05T13:34:52.477Z,2.30
2022-10-05T13:37:31.786Z,2.33
2022-10-05T13:40:30.461Z,2.33
2022-10-05T13:43:07.736Z,1.83
2022-10-05T13:45:55.814Z,2.30
2022-10-05T13:48:42.337Z,2.10
2022-10-05T13:51:23.647Z,2.00
2022-10-05T13:54:04.958Z,2.40
2022-10-05T13:56:39.498Z,2.17
2022-10-05T13:59:07.202Z,2.40
2022-10-05T14:02:01.888Z,2.03
2022-10-05T14:04:42.430Z,2.80
2022-10-05T14:07:23.988Z,1.88
2022-10-05T14:09:51.198Z,1.90
2022-10-05T14:12:23.320Z,1.60
2022-10-05T14:14:53.322Z,1.90
2022-10-05T14:17:38.918Z,2.47
2022-10-05T14:20:35.119Z,2.00
2022-10-05T14:23:14.214Z,1.80
2022-10-05T14:25:50.567Z,2.45
2022-10-05T14:28:31.261Z,1.83
2022-10-05T14:31:00.108Z,1.83
2022-10-05T14:33:31.285Z,1.65
2022-10-05T14:35:59.579Z,1.65
2022-10-05T14:38:51.545Z,1.90
2022-10-05T14:41:27.572Z,2.55
2022-10-05T14:44:02.302Z,1.80
2022-10-05T14:46:32.678Z,2.15
2022-10-05T14:49:30.343Z,2.15
2022-10-05T14:51:58.539Z,2.08
2022-10-05T14:54:46.184Z,1.95
2022-10-05T14:57:32.125Z,2.22
2022-10-05T15:00:10.660Z,2.13
2022-10-05T15:03:07.246Z,1.38
2022-10-05T15:05:49.274Z,2.00
2022-10-05T15:08:45.248Z,1.60
2022-10-05T15:11:36.920Z,1.90
2022-10-05T15:14:17.647Z,1.63
2022-10-05T15:16:45.297Z,1.80
2022-10-05T15:19:47.821Z,1.70
2022-10-05T15:22:32.107Z,1.90
2022-10-05T15:25:11.402Z,1.40
2022-10-05T15:27:44.834Z,1.80
2022-10-05T15:30:18.281Z,1.92
2022-10-05T15:33:40.596Z,1.92
2022-10-05T15:36:19.398Z,2.00
2022-10-05T15:39:09.489Z,2.10
2022-10-05T15:41:37.979Z,2.47
2022-10-05T15:44:36.429Z,1.77
2022-10-05T15:47:14.384Z,1.90
2022-10-05T15:50:15.390Z,1.95
2022-10-05T15:53:05.006Z,2.10
2022-10-05T15:56:02.916Z,2.00
2022-10-05T15:58:50.973Z,2.00
2022-10-05T16:01:23.171Z,2.30
2022-10-05T16:04:03.867Z,2.38
2022-10-05T16:07:15.312Z,2.10
2022-10-05T16:10:21.595Z,2.33
2022-10-05T16:12:51.420Z,2.45
2022-10-05T16:15:28.535Z,2.30
2022-10-05T16:18:18.499Z,2.45
2022-10-05T16:21:17.912Z,2.20
2022-10-05T16:24:18.292Z,2.28
2022-10-05T16:27:00.524Z,2.75
2022-10-05T16:29:36.328Z,2.57
2022-10-05T16:32:22.012Z,2.70
2022-10-05T16:35:00.324Z,2.50
2022-10-05T16:38:05.766Z,2.90
2022-10-05T16:41:01.979Z,2.53
2022-10-05T16:43:49.246Z,2.47
2022-10-05T16:46:48.278Z,2.80
2022-10-05T16:49:15.070Z,2.28
2022-10-05T16:51:46.774Z,2.55
2022-10-05T16:54:47.923Z,2.47
2022-10-05T16:57:17.837Z,2.20
2022-10-05T17:00:03.691Z,2.30
2022-10-05T17:02:46.383Z,2.42
2022-10-05T17:05:44.255Z,1.88
2022-10-05T17:08:21.477Z,2.10
2022-10-05T17:11:06.885Z,2.10
2022-10-05T17:13:39.564Z,2.30
2022-10-05T17:16:30.880Z,1.60
2022-10-05T17:19:23.627Z,1.95
2022-10-05T17:22:00.430Z,1.55
2022-10-05T17:24:51.006Z,2.15
2022-10-05T17:27:51.015Z,1.92
2022-10-05T17:30:54.034Z,1.88
2022-10-05T17:33:31.931Z,1.48
2022-10-05T17:36:08.662Z,2.10
2022-10-05T17:38:35.424Z,1.80
2022-10-05T17:41:21.554Z,1.73
2022-10-05T17:44:10.274Z,1.70
2022-10-05T17:46:48.301Z,1.50
2022-10-05T17:49:23.127Z,1.60
2022-10-05T17:52:11.445Z,1.85
2022-10-05T17:55:02.903Z,1.40
2022-10-05T17:57:30.091Z,1.67
2022-10-05T18:00:02.335Z,1.80
2022-10-05T18:02:36.176Z,1.40
2022-10-05T18:05:06.710Z,1.23
2022-10-05T18:07:38.200Z,1.35
2022-10-05T18:10:16.833Z,1.30
2022-10-05T18:12:50.988Z,1.55
2022-10-05T18:15:24.107Z,1.30
2022-10-05T18:18:33.307Z,1.33
2022-10-05T18:21:15.167Z,1.60
2022-10-05T18:23:50.034Z,1.00
2022-10-05T18:26:46.625Z,1.40
2022-10-05T18:30:01.217Z,1.25
2022-10-05T18:32:43.103Z,1.40
2022-10-05T18:35:18.785Z,1.10
2022-10-05T18:38:22.754Z,1.60
2022-10-05T18:41:05.704Z,1.10
2022-10-05T18:43:52.722Z,1.40
2022-10-05T18:46:41.513Z,1.40
2022-10-05T18:49:39.462Z,1.73
2022-10-05T18:52:24.703Z,1.90
2022-10-05T18:55:03.753Z,1.33
2022-10-05T18:58:01.084Z,1.40
2022-10-05T19:00:53.681Z,1.38
2022-10-05T19:03:43.769Z,1.80
2022-10-05T19:06:28.459Z,2.63
2022-10-05T19:09:07.806Z,1.83
2022-10-05T19:11:39.582Z,1.50
2022-10-05T19:14:51.491Z,1.50
2022-10-05T19:17:29.526Z,1.70
2022-10-05T19:20:46.917Z,1.20
2022-10-05T19:23:19.548Z,1.75
2022-10-05T19:25:59.600Z,1.60
2022-10-05T19:28:43.104Z,1.60
2022-10-05T19:31:12.799Z,1.65
2022-10-05T19:33:45.799Z,1.67
2022-10-05T19:39:05.131Z,1.38
2022-10-05T19:41:35.636Z,1.20
2022-10-05T19:44:38.369Z,1.60
2022-10-05T19:47:28.697Z,1.60
2022-10-05T19:49:55.464Z,1.58
2022-10-05T19:52:26.717Z,1.35
2022-10-05T19:55:31.874Z,2.30
2022-10-05T19:58:01.923Z,1.75
2022-10-05T20:00:31.953Z,1.65
2022-10-05T20:03:16.139Z,1.30
2022-10-05T20:05:43.247Z,1.33
2022-10-05T20:08:17.281Z,1.88
2022-10-05T20:10:45.208Z,1.42
2022-10-05T20:13:21.416Z,1.67
2022-10-05T20:16:47.473Z,1.98
2022-10-05T20:19:54.440Z,2.08
2022-10-05T20:22:30.181Z,1.75
2022-10-05T20:25:06.427Z,1.83
2022-10-05T20:27:44.455Z,1.95
2022-10-05T20:30:15.099Z,1.63
2022-10-05T20:32:42.231Z,1.42
2022-10-05T20:35:09.375Z,1.90
2022-10-05T20:37:36.856Z,2.15
2022-10-05T20:40:05.100Z,2.53
2022-10-05T20:42:31.980Z,1.88
2022-10-05T20:44:58.913Z,1.50
2022-10-05T20:47:26.098Z,1.63
2022-10-05T20:49:55.801Z,1.50
2022-10-05T20:52:24.635Z,1.33
2022-10-05T20:54:58.794Z,1.05
2022-10-05T20:57:26.649Z,1.00
2022-10-05T20:59:53.661Z,0.90
2022-10-05T21:02:20.762Z,0.82
2022-10-05T21:04:48.429Z,0.55
2022-10-05T21:07:17.360Z,0.65
2022-10-05T21:09:46.464Z,0.60
2022-10-05T21:12:14.047Z,0.60
2022-10-05T21:14:40.948Z,0.50
2022-10-05T21:17:08.307Z,0.60
2022-10-05T21:19:39.447Z,0.50
2022-10-05T21:22:10.573Z,0.63
2022-10-05T21:24:38.875Z,0.35
2022-10-05T21:27:06.287Z,0.50
2022-10-05T21:29:34.585Z,0.32
2022-10-05T21:32:01.460Z,0.60
2022-10-05T21:34:28.712Z,0.50
2022-10-05T21:36:55.784Z,0.50
2022-10-05T21:39:23.742Z,0.60
2022-10-05T21:41:50.615Z,0.57
2022-10-05T21:44:18.201Z,0.50
2022-10-05T21:46:45.200Z,0.60
2022-10-05T21:49:14.162Z,0.40
2022-10-05T21:51:44.987Z,0.52
2022-10-05T21:54:15.518Z,0.77
2022-10-05T21:56:46.330Z,0.47
2022-10-05T21:59:16.696Z,0.30
2022-10-05T22:01:43.456Z,0.35
2022-10-05T22:04:10.238Z,0.40
2022-10-05T22:06:37.156Z,0.40
2022-10-05T22:09:05.185Z,0.77
2022-10-05T22:11:32.747Z,0.52
2022-10-05T22:14:02.741Z,0.70
2022-10-05T22:16:33.709Z,0.75
2022-10-05T22:19:06.240Z,1.48
2022-10-05T22:21:38.199Z,0.35
2022-10-05T22:24:05.585Z,0.98
2022-10-05T22:26:33.007Z,0.68
2022-10-05T22:29:01.699Z,0.63
2022-10-05T22:31:28.906Z,0.80
2022-10-05T22:33:58.514Z,0.77
2022-10-05T22:36:25.512Z,0.63
2022-10-05T22:38:52.396Z,0.50
2022-10-05T22:41:19.426Z,0.50
2022-10-05T22:43:50.768Z,0.90
2022-10-05T22:46:18.216Z,0.80
2022-10-05T22:48:45.346Z,1.48
2022-10-05T22:51:12.270Z,0.63
2022-10-05T22:53:39.052Z,1.58
2022-10-05T22:56:11.521Z,0.60
2022-10-05T22:58:38.897Z,0.60
2022-10-05T23:01:08.609Z,1.02
2022-10-05T23:03:35.877Z,1.02
2022-10-05T23:06:09.049Z,0.90
2022-10-05T23:08:36.950Z,0.75
2022-10-05T23:11:06.144Z,0.85
2022-10-05T23:13:33.565Z,1.05
2022-10-05T23:16:12.085Z,0.82
2022-10-05T23:18:39.485Z,1.00
2022-10-05T23:21:08.481Z,0.98
2022-10-05T23:23:43.668Z,0.77
2022-10-05T23:26:11.739Z,0.70
2022-10-05T23:28:46.404Z,0.88
2022-10-05T23:31:19.578Z,0.82
2022-10-05T23:33:46.483Z,2.45
2022-10-05T23:36:17.791Z,1.30
2022-10-05T23:38:44.613Z,1.58
2022-10-05T23:41:12.367Z,1.45
2022-10-05T23:43:39.679Z,1.17
2022-10-05T23:46:08.027Z,1.17
2022-10-05T23:48:38.055Z,1.63
2022-10-05T23:51:06.838Z,1.00
2022-10-05T23:53:34.010Z,0.85
2022-10-05T23:56:00.844Z,1.00
2022-10-05T23:58:28.013Z,0.70
